Time;durP1;ratioP1;P1;durP2;ratioP2;P2;SDS_P1;SDS_P2;PMS_P1;PMS_P2;Temp;Humidity;BMP_temperature;BMP_pressure;BME280_temperature;BME280_humidity;BME280_pressure;Samples;Min_cycle;Max_cycle;Signal;HPM_P1;HPM_P2
2022/03/13 00:00:10;;;;;;;16.53;10.27;;;;;;;4.60;35.74;101887.56;5003084;28;20551;-54
2022/03/13 00:02:36;;;;;;;14.47;11.23;;;;;;;4.55;36.03;101889.06;5000592;28;20232;-54
2022/03/13 00:05:04;;;;;;;16.17;10.47;;;;;;;4.51;35.97;101877.66;5007802;28;20707;-55
2022/03/13 00:07:34;;;;;;;13.93;9.57;;;;;;;4.67;35.42;101876.59;5011927;28;20726;-53
2022/03/13 00:10:00;;;;;;;13.80;9.27;;;;;;;4.75;35.74;101867.38;5000462;28;20276;-54
2022/03/13 00:12:30;;;;;;;14.93;10.37;;;;;;;4.74;35.03;101870.81;4999445;28;20306;-53
2022/03/13 00:14:59;;;;;;;13.07;9.67;;;;;;;4.89;37.28;101867.06;5007572;28;20884;-53
2022/03/13 00:17:27;;;;;;;15.73;10.03;;;;;;;4.70;36.45;101866.31;5001977;28;20312;-52
2022/03/13 00:19:54;;;;;;;13.10;10.27;;;;;;;4.67;36.89;101863.59;5002237;28;20233;-54
2022/03/13 00:22:20;;;;;;;13.67;9.37;;;;;;;4.37;35.38;101864.91;4997068;28;20241;-53
2022/03/13 00:24:48;;;;;;;13.90;10.00;;;;;;;4.19;34.99;101868.50;5000703;28;20233;-54
2022/03/13 00:27:14;;;;;;;17.27;9.80;;;;;;;4.39;36.62;101865.84;5002431;28;20651;-54
2022/03/13 00:29:41;;;;;;;17.27;10.10;;;;;;;4.45;36.69;101871.31;5003290;28;20805;-53
2022/03/13 00:32:08;;;;;;;10.87;9.40;;;;;;;4.51;36.73;101876.78;5003767;28;20756;-54
2022/03/13 00:34:34;;;;;;;11.87;9.73;;;;;;;4.62;37.19;101861.63;5004605;28;20237;-55
2022/03/13 00:37:01;;;;;;;17.23;10.17;;;;;;;4.27;36.37;101864.50;5005116;28;20233;-55
2022/03/13 00:39:27;;;;;;;17.97;10.37;;;;;;;4.44;37.27;101870.44;5005158;28;20260;-55
2022/03/13 00:41:55;;;;;;;15.07;10.07;;;;;;;4.29;36.26;101865.47;5010455;28;20257;-54
2022/03/13 00:44:22;;;;;;;13.87;10.20;;;;;;;4.48;36.40;101867.13;5011503;28;20237;-54
2022/03/13 00:46:48;;;;;;;17.10;10.00;;;;;;;4.34;36.53;101864.78;5012009;28;20280;-54
2022/03/13 00:49:15;;;;;;;18.57;11.40;;;;;;;4.23;36.69;101865.19;5005460;28;20229;-55
2022/03/13 00:51:41;;;;;;;18.43;11.67;;;;;;;4.25;37.42;101863.56;5008832;28;20252;-53
2022/03/13 00:54:07;;;;;;;12.73;9.37;;;;;;;4.39;37.39;101860.63;4992851;28;20260;-53
2022/03/13 00:56:34;;;;;;;14.17;10.20;;;;;;;4.17;36.45;101862.31;5003974;28;20785;-54
2022/03/13 00:59:01;;;;;;;16.03;10.27;;;;;;;4.26;37.24;101865.34;5003763;28;20724;-54
2022/03/13 01:01:28;;;;;;;13.70;11.33;;;;;;;4.30;38.26;101859.44;5002575;28;20307;-53
2022/03/13 01:03:54;;;;;;;16.67;10.70;;;;;;;3.79;36.18;101866.75;5007793;28;20237;-54
2022/03/13 01:06:22;;;;;;;14.63;9.37;;;;;;;4.22;38.89;101866.03;5004181;28;20261;-55
2022/03/13 01:08:49;;;;;;;14.93;10.10;;;;;;;4.09;36.25;101865.44;5004212;28;20323;-54
2022/03/13 01:11:16;;;;;;;12.93;9.80;;;;;;;3.80;36.33;101863.31;5005388;28;20252;-53
2022/03/13 01:13:43;;;;;;;14.63;9.40;;;;;;;4.10;38.19;101862.88;5003019;28;20607;-53
2022/03/13 01:16:20;;;;;;;15.63;10.13;;;;;;;4.38;38.47;101861.47;5006419;28;20249;-55
2022/03/13 01:18:48;;;;;;;14.00;10.10;;;;;;;3.98;36.08;101860.66;4999514;28;20264;-55
2022/03/13 01:21:15;;;;;;;12.93;10.00;;;;;;;3.94;38.58;101860.47;5005514;28;20251;-55
2022/03/13 01:23:42;;;;;;;13.47;8.83;;;;;;;4.01;38.62;101852.13;5004204;28;20256;-54
2022/03/13 01:26:36;;;;;;;15.63;9.70;;;;;;;3.91;37.14;101850.81;5005662;28;20256;-53
2022/03/13 01:29:04;;;;;;;13.63;10.13;;;;;;;3.93;37.75;101854.38;5003276;28;20316;-52
2022/03/13 01:31:33;;;;;;;11.70;9.73;;;;;;;3.98;38.22;101852.84;5005466;28;20269;-52
2022/03/13 01:34:00;;;;;;;13.03;9.83;;;;;;;3.89;38.82;101856.75;5001571;28;20237;-52
2022/03/13 01:36:27;;;;;;;13.97;9.23;;;;;;;4.05;37.96;101856.63;5003296;28;20231;-53
2022/03/13 01:38:55;;;;;;;13.73;9.37;;;;;;;3.96;37.24;101858.81;5003733;28;20813;-53
2022/03/13 01:41:21;;;;;;;13.67;11.03;;;;;;;4.02;36.75;101851.28;5002685;28;20273;-53
2022/03/13 01:43:48;;;;;;;14.73;9.67;;;;;;;3.98;36.32;101851.97;5001055;28;20247;-53
2022/03/13 01:46:15;;;;;;;11.80;9.60;;;;;;;3.90;36.32;101855.97;5005459;28;20237;-53
2022/03/13 01:48:57;;;;;;;11.87;8.93;;;;;;;3.75;36.13;101858.75;5002053;28;20241;-54
2022/03/13 01:51:25;;;;;;;13.07;10.13;;;;;;;3.95;38.41;101851.84;5004639;28;20292;-53
2022/03/13 01:53:53;;;;;;;12.00;8.73;;;;;;;3.96;37.30;101858.81;5003318;28;20249;-52
2022/03/13 01:56:21;;;;;;;11.30;9.53;;;;;;;4.06;38.24;101840.19;5007634;28;20668;-52
2022/03/13 01:58:52;;;;;;;16.07;9.77;;;;;;;4.02;36.91;101854.75;5002606;28;20229;-53
2022/03/13 02:01:18;;;;;;;14.57;8.63;;;;;;;3.88;36.86;101849.78;5004296;28;20255;-52
2022/03/13 02:03:46;;;;;;;11.23;9.07;;;;;;;3.85;36.05;101845.34;5001136;28;20232;-53
2022/03/13 02:06:13;;;;;;;13.00;9.17;;;;;;;3.74;37.18;101847.47;5005331;28;20260;-52
2022/03/13 02:08:40;;;;;;;12.53;9.10;;;;;;;3.96;38.14;101849.28;5002991;28;20340;-53
2022/03/13 02:11:08;;;;;;;13.63;9.63;;;;;;;4.00;35.89;101842.53;4999455;28;20236;-54
2022/03/13 02:13:34;;;;;;;13.40;8.87;;;;;;;3.86;35.14;101852.34;5004427;28;20595;-53
2022/03/13 02:16:01;;;;;;;13.43;9.60;;;;;;;3.85;36.31;101844.47;5007513;28;20283;-53
2022/03/13 02:18:27;;;;;;;12.17;9.27;;;;;;;3.69;36.53;101851.59;5006558;28;20925;-52
2022/03/13 02:20:55;;;;;;;13.00;9.40;;;;;;;3.77;37.67;101842.41;5003815;28;20699;-53
2022/03/13 02:23:24;;;;;;;12.80;9.50;;;;;;;3.74;37.57;101841.38;5006396;28;20259;-53
2022/03/13 02:25:52;;;;;;;15.87;10.70;;;;;;;3.72;37.59;101840.41;5004447;28;20237;-52
2022/03/13 02:31:40;;;;;;;13.63;10.57;;;;;;;3.77;38.29;101832.03;4993644;28;20236;-53
2022/03/13 02:34:11;;;;;;;14.87;10.20;;;;;;;3.97;37.50;101834.63;5002306;28;20306;-54
2022/03/13 02:36:55;;;;;;;16.33;10.70;;;;;;;3.94;35.89;101843.16;5004067;28;20241;-53
2022/03/13 02:39:23;;;;;;;15.60;9.90;;;;;;;3.96;36.60;101843.22;5001793;28;20856;-53
2022/03/13 02:41:49;;;;;;;16.30;9.67;;;;;;;3.53;35.75;101841.31;5004182;28;20270;-53
2022/03/13 02:44:17;;;;;;;15.33;10.47;;;;;;;3.37;37.25;101846.59;5002286;28;20308;-53
2022/03/13 02:47:01;;;;;;;13.13;9.30;;;;;;;3.66;38.42;101840.16;5001666;28;20229;-53
2022/03/13 02:49:28;;;;;;;14.93;9.57;;;;;;;3.59;36.65;101839.00;5000032;28;20248;-53
2022/03/13 02:51:57;;;;;;;14.80;10.70;;;;;;;3.28;37.08;101845.38;5000255;28;20658;-52
2022/03/13 02:54:25;;;;;;;14.27;10.23;;;;;;;3.26;37.37;101846.13;4995696;28;20255;-53
2022/03/13 02:56:51;;;;;;;15.57;10.57;;;;;;;3.30;37.50;101841.16;4997701;28;20287;-54
2022/03/13 02:59:18;;;;;;;14.00;9.70;;;;;;;3.15;38.83;101847.31;5001057;28;20330;-53
2022/03/13 03:01:45;;;;;;;12.77;10.10;;;;;;;2.98;37.21;101843.94;5004009;28;20241;-54
2022/03/13 03:04:12;;;;;;;14.17;10.30;;;;;;;2.82;37.09;101845.81;5003230;28;20256;-54
2022/03/13 03:06:39;;;;;;;14.63;9.03;;;;;;;3.14;38.50;101841.25;5007302;28;20819;-53
2022/03/13 03:09:06;;;;;;;15.27;10.63;;;;;;;2.72;37.26;101843.56;5008665;28;20248;-54
2022/03/13 03:11:34;;;;;;;16.87;10.33;;;;;;;2.84;37.82;101844.19;5010875;28;21184;-54
2022/03/13 03:14:00;;;;;;;18.50;11.13;;;;;;;2.58;38.01;101847.19;5010309;28;20232;-54
2022/03/13 03:16:27;;;;;;;14.80;10.87;;;;;;;2.79;38.30;101845.66;5004959;28;20288;-55
2022/03/13 03:18:53;;;;;;;26.57;12.57;;;;;;;2.80;38.47;101844.81;5002373;28;20228;-54
2022/03/13 03:21:20;;;;;;;15.73;10.17;;;;;;;2.85;39.52;101848.53;5003245;28;20902;-54
2022/03/13 03:23:46;;;;;;;14.73;9.80;;;;;;;3.07;38.36;101854.75;5004236;28;20255;-54
2022/03/13 03:26:12;;;;;;;14.40;10.13;;;;;;;2.95;38.71;101847.28;5003998;28;20224;-55
2022/03/13 03:28:40;;;;;;;13.67;9.63;;;;;;;3.11;38.68;101841.09;5003376;28;20666;-54
2022/03/13 03:31:07;;;;;;;15.97;10.20;;;;;;;3.20;39.57;101844.16;5002743;28;20271;-55
2022/03/13 03:33:33;;;;;;;17.03;10.40;;;;;;;3.08;37.16;101841.84;4999725;28;20236;-55
2022/03/13 03:35:59;;;;;;;15.07;10.60;;;;;;;3.01;36.33;101838.88;5002440;28;20227;-55
2022/03/13 03:38:26;;;;;;;14.97;10.90;;;;;;;3.09;37.49;101835.84;5003840;28;20252;-53
2022/03/13 03:40:52;;;;;;;15.63;10.53;;;;;;;2.86;37.11;101834.75;4996856;28;20263;-52
2022/03/13 03:43:18;;;;;;;15.30;10.23;;;;;;;2.84;38.02;101836.41;5003493;28;20268;-52
2022/03/13 03:45:46;;;;;;;17.63;11.47;;;;;;;3.29;38.31;101834.16;5003974;28;20239;-54
2022/03/13 03:48:12;;;;;;;12.83;10.23;;;;;;;3.26;36.57;101831.44;5003619;28;20264;-53
2022/03/13 03:50:39;;;;;;;15.13;9.47;;;;;;;3.45;38.06;101828.00;4999086;28;20737;-53
2022/03/13 03:53:05;;;;;;;12.70;9.17;;;;;;;3.03;37.11;101837.28;4999448;28;20251;-54
2022/03/13 03:55:31;;;;;;;14.23;9.77;;;;;;;2.94;37.70;101839.41;5000169;28;20322;-53
2022/03/13 03:57:58;;;;;;;15.50;10.80;;;;;;;2.95;38.59;101838.59;5003642;28;20651;-52
2022/03/13 04:00:24;;;;;;;14.93;9.43;;;;;;;3.21;38.81;101837.25;4999106;28;20241;-54
2022/03/13 04:02:52;;;;;;;15.17;9.53;;;;;;;3.29;38.19;101839.34;5004159;28;20259;-53
2022/03/13 04:05:18;;;;;;;17.63;10.17;;;;;;;3.33;36.50;101838.72;5001547;28;20263;-53
2022/03/13 04:07:45;;;;;;;19.47;11.60;;;;;;;3.33;37.89;101838.72;5003599;28;20259;-53
2022/03/13 04:10:12;;;;;;;18.30;10.30;;;;;;;3.31;38.95;101837.75;4999757;28;20242;-54
2022/03/13 04:12:39;;;;;;;13.80;11.10;;;;;;;3.50;37.75;101833.38;5004340;28;20241;-52
2022/03/13 04:15:06;;;;;;;17.07;10.77;;;;;;;3.26;37.75;101826.22;5001132;28;20282;-53
2022/03/13 04:17:32;;;;;;;18.67;11.17;;;;;;;3.25;38.41;101839.16;5004176;28;20621;-53
2022/03/13 04:20:00;;;;;;;15.33;10.13;;;;;;;3.37;39.04;101833.63;5001823;28;20279;-53
2022/03/13 04:22:27;;;;;;;15.73;10.03;;;;;;;3.00;37.25;101826.75;5006708;28;20260;-52
2022/03/13 04:24:54;;;;;;;16.07;10.20;;;;;;;2.85;37.61;101832.09;5006430;28;20236;-53
2022/03/13 04:27:20;;;;;;;15.60;10.07;;;;;;;2.76;38.50;101831.66;5000015;28;20252;-53
2022/03/13 04:29:47;;;;;;;19.10;10.40;;;;;;;2.83;37.69;101836.31;5006555;28;20321;-53
2022/03/13 04:32:14;;;;;;;15.37;10.17;;;;;;;3.06;40.22;101832.22;5000804;28;20236;-54
2022/03/13 04:34:40;;;;;;;17.40;10.87;;;;;;;2.35;38.28;101839.19;5006942;28;20255;-51
2022/03/13 04:37:08;;;;;;;18.30;11.23;;;;;;;2.52;39.98;101837.41;5002831;28;20260;-53
2022/03/13 04:39:35;;;;;;;12.97;10.23;;;;;;;2.85;39.59;101843.34;5006036;28;20780;-54
2022/03/13 04:42:03;;;;;;;15.27;10.00;;;;;;;2.59;39.43;101838.59;5003991;28;20894;-55
2022/03/13 04:44:29;;;;;;;15.80;11.23;;;;;;;2.53;39.03;101839.19;5002738;28;20245;-53
2022/03/13 04:46:55;;;;;;;16.07;10.20;;;;;;;2.61;39.21;101839.56;5003828;28;20255;-54
2022/03/13 04:49:21;;;;;;;15.47;10.30;;;;;;;2.66;37.87;101845.84;5005561;28;20784;-55
2022/03/13 04:51:48;;;;;;;16.37;10.30;;;;;;;2.78;39.17;101854.25;5006191;28;20302;-52
2022/03/13 04:54:17;;;;;;;14.37;11.07;;;;;;;2.54;37.93;101850.47;5005563;28;20232;-52
2022/03/13 04:56:44;;;;;;;15.03;10.30;;;;;;;2.63;38.89;101844.03;4997760;28;20245;-52
2022/03/13 04:59:11;;;;;;;16.33;10.90;;;;;;;2.86;38.55;101849.44;5006486;28;20235;-52
2022/03/13 05:01:37;;;;;;;15.77;11.27;;;;;;;2.60;37.75;101845.59;5004299;28;20904;-52
2022/03/13 05:04:05;;;;;;;18.33;10.77;;;;;;;2.71;39.51;101849.59;5006246;28;20256;-52
2022/03/13 05:06:34;;;;;;;15.37;9.70;;;;;;;2.82;38.35;101843.22;5006793;28;20243;-53
2022/03/13 05:09:00;;;;;;;17.13;11.37;;;;;;;2.59;37.68;101844.66;5006657;28;20240;-53
2022/03/13 05:11:28;;;;;;;14.23;10.07;;;;;;;3.27;38.81;101846.19;5002646;28;20236;-53
2022/03/13 05:13:54;;;;;;;15.13;9.63;;;;;;;2.95;37.29;101847.28;4998733;28;20256;-52
2022/03/13 05:16:20;;;;;;;18.63;11.63;;;;;;;2.59;38.48;101846.38;5003776;28;20259;-53
2022/03/13 05:18:46;;;;;;;15.60;11.10;;;;;;;2.87;38.71;101851.19;5004414;28;20264;-52
2022/03/13 05:21:14;;;;;;;13.67;10.37;;;;;;;2.42;38.07;101849.84;5004679;28;20243;-53
2022/03/13 05:23:40;;;;;;;16.53;10.53;;;;;;;2.93;39.65;101850.63;5005884;28;20248;-55
2022/03/13 05:26:06;;;;;;;18.27;10.63;;;;;;;2.91;38.32;101849.63;5005995;28;20828;-51
2022/03/13 05:28:35;;;;;;;14.57;11.10;;;;;;;2.68;37.88;101848.53;5005396;28;20264;-52
2022/03/13 05:31:02;;;;;;;18.47;10.70;;;;;;;2.68;38.31;101852.03;5005203;28;20247;-53
2022/03/13 05:33:30;;;;;;;20.03;12.03;;;;;;;2.68;40.32;101858.91;5003909;28;20240;-54
2022/03/13 05:35:57;;;;;;;14.13;9.73;;;;;;;2.65;38.66;101862.25;5004479;28;20225;-55
2022/03/13 05:38:23;;;;;;;16.47;10.53;;;;;;;2.61;39.65;101857.72;5008370;28;20243;-53
2022/03/13 05:40:49;;;;;;;19.93;10.70;;;;;;;2.75;38.19;101861.88;5009575;28;20257;-54
2022/03/13 05:43:16;;;;;;;17.17;9.80;;;;;;;2.83;38.40;101865.72;5014102;28;20236;-55
2022/03/13 05:45:45;;;;;;;12.03;8.90;;;;;;;2.73;38.83;101852.25;5009238;28;20240;-52
2022/03/13 05:48:15;;;;;;;13.53;10.07;;;;;;;2.86;40.26;101865.88;5006719;28;20232;-53
2022/03/13 05:50:42;;;;;;;18.97;10.40;;;;;;;2.66;37.78;101869.19;5000474;28;20852;-53
2022/03/13 05:53:08;;;;;;;11.13;9.03;;;;;;;2.71;40.02;101875.50;5004790;28;20277;-53
2022/03/13 05:55:34;;;;;;;16.17;11.93;;;;;;;2.81;38.85;101876.88;5000070;28;20322;-52
2022/03/13 05:58:01;;;;;;;14.87;9.83;;;;;;;2.74;39.45;101870.47;5001427;28;20263;-53
2022/03/13 06:00:31;;;;;;;15.07;9.77;;;;;;;2.94;40.21;101873.13;5004508;28;20314;-53
2022/03/13 06:02:59;;;;;;;15.37;9.67;;;;;;;2.98;39.49;101873.34;5002011;28;20819;-53
2022/03/13 06:05:26;;;;;;;14.30;10.33;;;;;;;2.87;39.64;101878.03;5003344;28;20233;-52
2022/03/13 06:07:53;;;;;;;13.97;9.70;;;;;;;2.56;37.51;101882.50;5004405;28;20239;-53
2022/03/13 06:10:19;;;;;;;15.70;10.17;;;;;;;2.93;40.38;101881.75;5002430;28;20780;-53
2022/03/13 06:12:46;;;;;;;16.03;9.93;;;;;;;2.95;38.44;101874.91;5005128;28;20229;-53
2022/03/13 06:15:13;;;;;;;15.93;9.97;;;;;;;3.39;38.78;101869.22;5004468;28;20261;-53
2022/03/13 06:17:40;;;;;;;13.50;9.57;;;;;;;3.31;36.40;101871.47;5002379;28;20310;-54
2022/03/13 06:20:10;;;;;;;15.67;10.17;;;;;;;3.27;38.13;101879.94;5003986;28;20256;-53
2022/03/13 06:22:36;;;;;;;16.83;10.00;;;;;;;2.98;38.56;101882.84;5002812;28;20359;-52
2022/03/13 06:25:03;;;;;;;15.97;9.37;;;;;;;2.95;37.26;101885.28;5005248;28;20319;-55
2022/03/13 06:27:30;;;;;;;15.70;9.67;;;;;;;3.02;37.31;101893.47;5003732;28;20244;-53
2022/03/13 06:30:01;;;;;;;16.63;9.80;;;;;;;3.00;35.97;101891.59;5005790;28;20327;-53
2022/03/13 06:32:28;;;;;;;16.03;10.50;;;;;;;3.23;38.91;101898.78;5003634;28;20307;-53
2022/03/13 06:34:55;;;;;;;15.83;10.17;;;;;;;3.01;38.04;101890.78;5005152;28;20252;-55
2022/03/13 06:37:22;;;;;;;12.90;9.50;;;;;;;3.02;37.55;101895.13;4999619;28;20240;-53
2022/03/13 06:39:50;;;;;;;13.00;9.50;;;;;;;2.98;39.26;101893.22;5002903;28;20666;-53
2022/03/13 06:42:17;;;;;;;14.17;10.27;;;;;;;3.19;38.06;101895.94;5004059;28;20279;-54
2022/03/13 06:44:43;;;;;;;16.57;10.17;;;;;;;3.08;39.14;101892.84;5005524;28;20279;-54
2022/03/13 06:47:09;;;;;;;14.20;9.60;;;;;;;3.03;36.13;101896.94;4999216;28;20232;-54
2022/03/13 06:49:36;;;;;;;14.37;9.73;;;;;;;3.36;37.34;101895.03;5004304;28;20272;-54
2022/03/13 06:52:03;;;;;;;14.77;10.57;;;;;;;3.38;36.92;101895.13;5003662;28;20256;-51
2022/03/13 06:54:31;;;;;;;13.67;9.20;;;;;;;3.36;36.70;101895.03;5004313;28;20251;-56
2022/03/13 06:56:57;;;;;;;16.13;10.30;;;;;;;3.35;35.58;101888.97;5002746;28;20319;-53
2022/03/13 06:59:24;;;;;;;15.43;9.33;;;;;;;3.54;37.02;101895.00;5001737;28;20249;-54
2022/03/13 07:01:50;;;;;;;12.63;9.23;;;;;;;3.42;36.83;101886.66;5004815;28;20272;-55
2022/03/13 07:04:17;;;;;;;14.47;10.20;;;;;;;3.30;36.08;101893.06;5003983;28;20343;-54
2022/03/13 07:06:43;;;;;;;12.23;9.20;;;;;;;3.23;36.44;101893.59;5003224;28;20832;-54
2022/03/13 07:09:10;;;;;;;13.73;10.07;;;;;;;3.46;35.39;101891.19;5004354;28;20271;-55
2022/03/13 07:11:38;;;;;;;13.40;8.73;;;;;;;3.79;38.13;101891.81;5004034;28;20251;-53
2022/03/13 07:14:07;;;;;;;14.03;9.27;;;;;;;3.76;36.46;101882.19;5001660;28;20344;-55
2022/03/13 07:16:33;;;;;;;16.60;10.67;;;;;;;3.70;35.05;101900.09;5004295;28;20722;-54
2022/03/13 07:18:59;;;;;;;11.47;8.60;;;;;;;3.61;36.96;101894.47;5003607;28;20913;-55
2022/03/13 07:21:26;;;;;;;14.43;8.47;;;;;;;3.43;35.47;101897.09;5003471;28;20268;-54
2022/03/13 07:23:52;;;;;;;12.73;8.97;;;;;;;3.41;36.75;101892.69;5003585;28;20248;-55
2022/03/13 07:26:18;;;;;;;16.50;10.07;;;;;;;3.73;37.92;101897.63;5003809;28;20235;-53
2022/03/13 07:28:46;;;;;;;13.30;8.80;;;;;;;3.81;35.62;101891.06;5004343;28;20298;-53
2022/03/13 07:31:12;;;;;;;12.07;9.20;;;;;;;3.96;37.78;101889.97;5001349;28;20298;-55
2022/03/13 07:33:39;;;;;;;20.47;9.67;;;;;;;3.89;37.42;101890.53;5003902;28;20243;-53
2022/03/13 07:36:05;;;;;;;17.97;9.93;;;;;;;4.05;36.41;101887.81;5003267;28;20249;-53
2022/03/13 07:38:32;;;;;;;14.77;9.70;;;;;;;4.03;35.25;101886.81;5003321;28;20259;-54
2022/03/13 07:40:58;;;;;;;14.53;9.57;;;;;;;4.10;34.25;101883.69;5005239;28;20233;-53
2022/03/13 07:43:25;;;;;;;13.97;10.23;;;;;;;4.14;34.58;101884.69;5004173;28;20721;-54
2022/03/13 07:45:53;;;;;;;12.80;9.93;;;;;;;4.10;35.16;101883.69;5003985;28;20233;-53
2022/03/13 07:48:19;;;;;;;14.40;9.80;;;;;;;4.33;35.71;101884.69;5001647;28;20659;-54
2022/03/13 07:50:46;;;;;;;15.53;9.77;;;;;;;4.24;33.76;101882.56;5003935;28;20313;-54
2022/03/13 07:53:12;;;;;;;14.40;9.30;;;;;;;4.41;33.52;101879.81;5000844;28;20768;-54
2022/03/13 07:55:38;;;;;;;12.33;9.53;;;;;;;4.63;34.88;101887.69;4999952;28;20283;-53
2022/03/13 07:58:04;;;;;;;16.00;9.83;;;;;;;4.65;33.64;101875.63;5007515;28;20574;-53
2022/03/13 08:00:31;;;;;;;12.60;8.70;;;;;;;4.86;33.11;101882.53;5007706;28;20730;-53
2022/03/13 08:02:58;;;;;;;13.80;10.20;;;;;;;4.81;32.56;101879.78;5003367;28;20256;-55
2022/03/13 08:05:25;;;;;;;12.67;9.70;;;;;;;4.78;32.20;101879.63;5007829;28;20290;-54
2022/03/13 08:07:52;;;;;;;14.40;9.10;;;;;;;5.08;34.28;101877.38;5008458;28;20279;-53
2022/03/13 08:10:20;;;;;;;11.13;8.40;;;;;;;4.91;31.48;101875.81;5004503;28;20237;-54
2022/03/13 08:12:47;;;;;;;12.93;9.80;;;;;;;4.95;32.58;101885.50;5008850;28;20228;-53
2022/03/13 08:15:13;;;;;;;12.20;8.83;;;;;;;5.22;31.36;101881.41;5010185;28;20228;-53
2022/03/13 08:17:40;;;;;;;13.13;9.67;;;;;;;5.45;32.18;101884.91;5009911;28;20249;-52
2022/03/13 08:20:09;;;;;;;14.23;9.33;;;;;;;5.70;31.52;101881.50;5005793;28;20233;-52
2022/03/13 08:22:35;;;;;;;13.10;8.57;;;;;;;5.89;30.58;101876.97;5006088;28;20615;-52
2022/03/13 08:25:02;;;;;;;12.93;9.03;;;;;;;6.14;30.51;101873.53;5008338;28;20233;-55
2022/03/13 08:27:28;;;;;;;12.47;8.47;;;;;;;6.35;30.15;101876.94;5006866;28;20784;-53
2022/03/13 08:29:54;;;;;;;11.30;9.27;;;;;;;6.43;29.27;101872.84;5007930;28;20272;-53
2022/03/13 08:32:21;;;;;;;12.30;9.03;;;;;;;6.52;30.32;101876.59;5007414;28;20237;-52
2022/03/13 08:34:48;;;;;;;12.03;8.97;;;;;;;6.64;28.91;101871.81;5006029;28;20815;-53
2022/03/13 08:37:16;;;;;;;13.43;8.37;;;;;;;6.55;27.99;101874.97;5007500;28;20291;-52
2022/03/13 08:39:43;;;;;;;12.50;8.53;;;;;;;6.69;28.11;101871.09;5007190;28;20226;-54
2022/03/13 08:42:09;;;;;;;11.13;7.37;;;;;;;6.63;27.66;101867.41;5010217;28;20285;-54
2022/03/13 08:44:35;;;;;;;12.83;8.73;;;;;;;6.65;27.06;101870.97;5008190;28;20233;-53
2022/03/13 08:47:02;;;;;;;12.50;8.30;;;;;;;6.75;28.94;101869.56;5008958;28;20237;-53
2022/03/13 08:49:29;;;;;;;13.83;8.73;;;;;;;6.89;28.89;101863.06;5007055;28;20265;-53
2022/03/13 08:51:55;;;;;;;14.17;8.33;;;;;;;6.64;28.82;101867.47;5005487;28;20256;-53
2022/03/13 08:54:23;;;;;;;11.67;8.23;;;;;;;6.68;27.52;101861.50;5007930;28;20233;-54
2022/03/13 08:56:49;;;;;;;10.83;7.80;;;;;;;6.50;27.91;101860.03;5007705;28;20272;-54
2022/03/13 08:59:15;;;;;;;17.07;8.97;;;;;;;6.68;27.77;101861.50;5006223;28;20240;-53
2022/03/13 09:01:42;;;;;;;10.93;7.87;;;;;;;6.71;27.83;101862.47;5007517;28;20237;-54
2022/03/13 09:04:09;;;;;;;11.63;8.80;;;;;;;6.77;27.30;101865.25;5005831;28;20265;-53
2022/03/13 09:06:36;;;;;;;11.10;8.63;;;;;;;6.83;28.00;101855.03;5006542;28;20260;-54
2022/03/13 09:09:02;;;;;;;10.40;7.77;;;;;;;7.25;28.75;101857.22;5005203;28;20287;-54
2022/03/13 09:11:30;;;;;;;11.10;8.13;;;;;;;7.45;27.38;101843.03;5007271;28;20244;-59
2022/03/13 09:13:56;;;;;;;12.37;7.67;;;;;;;7.64;26.91;101857.50;5004935;28;20288;-54
2022/03/13 09:16:22;;;;;;;11.93;8.40;;;;;;;7.59;26.29;101851.28;5006963;28;20241;-53
2022/03/13 09:18:49;;;;;;;10.30;8.27;;;;;;;7.83;26.56;101853.72;5004174;28;20253;-54
2022/03/13 09:21:15;;;;;;;12.00;9.67;;;;;;;7.99;26.11;101850.66;5005248;28;20237;-53
2022/03/13 09:23:42;;;;;;;12.43;8.53;;;;;;;8.17;26.93;101849.38;5000583;28;20288;-52
2022/03/13 09:26:08;;;;;;;11.23;8.20;;;;;;;8.25;26.49;101847.84;5008018;28;20299;-54
2022/03/13 09:28:36;;;;;;;11.33;8.90;;;;;;;8.46;25.95;101851.09;5008459;28;20288;-54
2022/03/13 09:31:02;;;;;;;10.07;8.37;;;;;;;8.55;25.78;101846.06;5007783;28;20882;-54
2022/03/13 09:33:28;;;;;;;12.97;8.27;;;;;;;8.66;26.05;101850.69;5000259;28;20234;-54
2022/03/13 09:35:55;;;;;;;12.90;8.77;;;;;;;8.74;24.68;101844.81;5006492;28;20295;-53
2022/03/13 09:38:21;;;;;;;9.77;8.30;;;;;;;8.70;24.73;101856.03;5004007;28;20319;-54
2022/03/13 09:40:47;;;;;;;9.77;7.53;;;;;;;8.76;25.20;101852.69;5004516;28;20751;-54
2022/03/13 09:43:14;;;;;;;9.60;7.83;;;;;;;8.69;25.23;101850.75;5005913;28;20299;-55
2022/03/13 09:45:42;;;;;;;8.63;7.73;;;;;;;8.78;24.88;101851.88;5006245;28;20298;-55
2022/03/13 09:48:09;;;;;;;9.90;7.60;;;;;;;8.74;24.19;101849.13;5003624;28;20287;-54
2022/03/13 09:50:36;;;;;;;9.27;7.40;;;;;;;8.81;24.69;101840.59;5002744;28;20613;-54
2022/03/13 09:53:02;;;;;;;10.07;7.00;;;;;;;8.83;24.94;101838.88;5004775;28;20399;-54
2022/03/13 09:55:29;;;;;;;10.05;7.13;;;;;;;9.08;24.37;101846.47;5005880;28;20429;-53
2022/03/13 09:57:55;;;;;;;9.53;7.37;;;;;;;9.35;23.39;101837.47;5003921;28;20241;-54
2022/03/13 10:00:22;;;;;;;10.93;7.90;;;;;;;9.51;23.76;101839.56;5004721;28;20279;-53
2022/03/13 10:02:54;;;;;;;10.63;8.07;;;;;;;9.31;23.39;101830.38;5004828;28;20231;-53
2022/03/13 10:05:22;;;;;;;9.10;7.20;;;;;;;9.32;22.92;101840.00;5006211;28;20241;-52
2022/03/13 10:07:53;;;;;;;8.80;7.03;;;;;;;9.39;22.61;101841.91;5002363;28;20225;-53
2022/03/13 10:10:20;;;;;;;10.87;6.73;;;;;;;9.68;21.54;101837.25;5003884;28;20229;-55
2022/03/13 10:12:47;;;;;;;9.97;7.53;;;;;;;9.49;24.31;101849.13;5004767;28;20779;-53
2022/03/13 10:15:14;;;;;;;11.37;7.23;;;;;;;9.59;21.88;101842.34;5003275;28;20316;-53
2022/03/13 10:17:41;;;;;;;9.40;6.67;;;;;;;9.52;22.94;101822.97;5007016;28;20268;-51
2022/03/13 10:20:18;;;;;;;8.60;6.23;;;;;;;9.63;20.95;101827.56;5004999;28;20291;-54
2022/03/13 10:22:46;;;;;;;8.97;6.63;;;;;;;9.54;20.98;101829.13;5004964;28;20725;-54
2022/03/13 10:25:14;;;;;;;9.07;5.80;;;;;;;9.59;22.24;101824.00;5001748;28;20253;-53
2022/03/13 10:27:41;;;;;;;8.23;6.67;;;;;;;9.43;21.58;101822.78;5004340;28;20264;-51
2022/03/13 10:30:08;;;;;;;8.33;6.37;;;;;;;9.53;20.92;101829.97;5003145;28;20600;-51
2022/03/13 10:32:35;;;;;;;7.20;6.30;;;;;;;9.58;20.67;101816.94;5006254;28;20710;-53
2022/03/13 10:35:02;;;;;;;10.70;6.57;;;;;;;9.60;21.22;101819.63;5005414;28;20257;-52
2022/03/13 10:37:38;;;;;;;9.57;6.93;;;;;;;9.67;20.69;101822.41;5006144;28;20247;-52
2022/03/13 10:40:07;;;;;;;8.87;6.57;;;;;;;9.61;22.24;101816.13;5003544;28;20271;-52
2022/03/13 10:42:34;;;;;;;7.20;5.93;;;;;;;9.68;21.75;101816.28;5005746;28;20237;-53
2022/03/13 10:45:01;;;;;;;7.60;5.87;;;;;;;9.75;21.04;101814.69;5005223;28;20276;-53
2022/03/13 10:47:31;;;;;;;7.33;6.10;;;;;;;9.86;20.67;101802.66;5005457;28;20725;-52
2022/03/13 10:49:57;;;;;;;8.57;5.93;;;;;;;9.85;21.14;101800.88;4999731;28;20267;-52
2022/03/13 10:52:27;;;;;;;12.83;5.90;;;;;;;9.88;21.17;101800.94;5002670;28;20694;-53
2022/03/13 10:54:55;;;;;;;9.50;6.03;;;;;;;10.08;20.26;101803.06;5003430;28;20320;-52
2022/03/13 10:57:21;;;;;;;8.33;6.20;;;;;;;10.12;20.20;101804.91;4999559;28;20237;-53
2022/03/13 11:00:07;;;;;;;8.00;5.97;;;;;;;10.15;21.54;101802.34;5001469;28;20233;-52
2022/03/13 11:02:33;;;;;;;6.33;5.67;;;;;;;10.17;21.35;101805.84;5000971;28;20233;-53
2022/03/13 11:05:00;;;;;;;10.43;6.10;;;;;;;10.32;20.44;101803.53;5000245;28;20323;-52
2022/03/13 11:07:27;;;;;;;8.50;6.30;;;;;;;10.47;19.71;101789.78;5002299;28;20806;-52
2022/03/13 11:09:55;;;;;;;7.03;5.60;;;;;;;10.42;21.78;101788.81;5002199;28;20729;-52
2022/03/13 11:12:23;;;;;;;7.83;5.87;;;;;;;10.75;20.39;101793.72;5002549;28;20618;-53
2022/03/13 11:14:52;;;;;;;8.43;5.53;;;;;;;10.65;20.44;101786.56;5002777;28;20248;-53
2022/03/13 11:17:20;;;;;;;5.47;4.53;;;;;;;10.48;20.61;101788.91;5002638;28;20249;-53
2022/03/13 11:19:49;;;;;;;8.57;5.30;;;;;;;10.72;19.51;101791.94;5002149;28;20233;-54
2022/03/13 11:22:17;;;;;;;7.03;5.33;;;;;;;11.04;19.38;101791.53;5001823;28;20237;-54
2022/03/13 11:24:44;;;;;;;7.90;5.70;;;;;;;10.95;19.52;101779.16;5000818;28;20245;-52